sensor_id;sensor_type;location;lat;lon;timestamp;P1;durP1;ratioP1;P2;durP2;ratioP2
43554;SDS011;35085;40.398;-3.702;2023-03-01T00:07:01;2.25;;;1.08;;
43554;SDS011;35085;40.398;-3.702;2023-03-01T00:17:11;1.98;;;1.00;;
43554;SDS011;35085;40.398;-3.702;2023-03-01T00:27:20;4.00;;;1.20;;
43554;SDS011;35085;40.398;-3.702;2023-03-01T00:37:28;2.10;;;1.13;;
43554;SDS011;35085;40.398;-3.702;2023-03-01T00:47:37;1.97;;;1.10;;
43554;SDS011;35085;40.398;-3.702;2023-03-01T00:57:45;3.95;;;1.20;;
43554;SDS011;35085;40.398;-3.702;2023-03-01T01:07:53;2.78;;;1.38;;
43554;SDS011;35085;40.398;-3.702;2023-03-01T01:18:02;3.30;;;1.00;;
43554;SDS011;35085;40.398;-3.702;2023-03-01T01:28:11;3.67;;;1.30;;
43554;SDS011;35085;40.398;-3.702;2023-03-01T01:38:20;10.17;;;1.83;;
43554;SDS011;35085;40.398;-3.702;2023-03-01T01:48:43;4.50;;;1.13;;
43554;SDS011;35085;40.398;-3.702;2023-03-01T01:58:46;4.15;;;1.40;;
43554;SDS011;35085;40.398;-3.702;2023-03-01T02:08:57;2.73;;;1.57;;
43554;SDS011;35085;40.398;-3.702;2023-03-01T02:19:03;2.33;;;1.20;;
43554;SDS011;35085;40.398;-3.702;2023-03-01T02:29:14;3.45;;;1.30;;
43554;SDS011;35085;40.398;-3.702;2023-03-01T02:39:28;6.18;;;1.77;;
43554;SDS011;35085;40.398;-3.702;2023-03-01T02:49:43;3.50;;;1.55;;
43554;SDS011;35085;40.398;-3.702;2023-03-01T02:59:57;5.20;;;2.20;;
43554;SDS011;35085;40.398;-3.702;2023-03-01T03:10:18;3.90;;;2.00;;
43554;SDS011;35085;40.398;-3.702;2023-03-01T03:20:32;6.45;;;2.30;;
43554;SDS011;35085;40.398;-3.702;2023-03-01T03:30:49;4.55;;;2.08;;
43554;SDS011;35085;40.398;-3.702;2023-03-01T03:41:04;8.40;;;2.70;;
43554;SDS011;35085;40.398;-3.702;2023-03-01T03:51:20;6.60;;;2.47;;
43554;SDS011;35085;40.398;-3.702;2023-03-01T04:01:33;7.97;;;3.15;;
43554;SDS011;35085;40.398;-3.702;2023-03-01T04:11:48;5.47;;;2.78;;
43554;SDS011;35085;40.398;-3.702;2023-03-01T04:22:07;7.70;;;2.60;;
43554;SDS011;35085;40.398;-3.702;2023-03-01T04:32:24;5.72;;;2.72;;
43554;SDS011;35085;40.398;-3.702;2023-03-01T04:42:33;4.15;;;1.92;;
43554;SDS011;35085;40.398;-3.702;2023-03-01T04:52:50;5.28;;;2.40;;
43554;SDS011;35085;40.398;-3.702;2023-03-01T05:03:00;5.82;;;2.80;;
43554;SDS011;35085;40.398;-3.702;2023-03-01T05:13:09;4.65;;;2.30;;
43554;SDS011;35085;40.398;-3.702;2023-03-01T05:33:27;5.55;;;2.45;;
43554;SDS011;35085;40.398;-3.702;2023-03-01T05:43:36;4.63;;;2.33;;
43554;SDS011;35085;40.398;-3.702;2023-03-01T05:53:44;6.27;;;2.50;;
43554;SDS011;35085;40.398;-3.702;2023-03-01T06:03:55;4.20;;;1.95;;
43554;SDS011;35085;40.398;-3.702;2023-03-01T06:14:04;7.53;;;2.80;;
43554;SDS011;35085;40.398;-3.702;2023-03-01T06:24:11;9.15;;;3.10;;
43554;SDS011;35085;40.398;-3.702;2023-03-01T06:34:21;9.15;;;3.72;;
43554;SDS011;35085;40.398;-3.702;2023-03-01T06:44:31;9.00;;;3.78;;
43554;SDS011;35085;40.398;-3.702;2023-03-01T07:04:42;8.23;;;3.95;;
43554;SDS011;35085;40.398;-3.702;2023-03-01T07:14:50;8.75;;;3.90;;
43554;SDS011;35085;40.398;-3.702;2023-03-01T07:45:12;6.57;;;3.22;;
43554;SDS011;35085;40.398;-3.702;2023-03-01T07:55:21;9.13;;;3.10;;
43554;SDS011;35085;40.398;-3.702;2023-03-01T08:05:31;7.17;;;2.10;;
43554;SDS011;35085;40.398;-3.702;2023-03-01T08:15:38;6.20;;;2.20;;
43554;SDS011;35085;40.398;-3.702;2023-03-01T08:25:47;5.97;;;2.83;;
43554;SDS011;35085;40.398;-3.702;2023-03-01T08:36:05;9.40;;;4.13;;
43554;SDS011;35085;40.398;-3.702;2023-03-01T08:46:15;9.68;;;4.13;;
43554;SDS011;35085;40.398;-3.702;2023-03-01T08:56:23;11.25;;;3.33;;
43554;SDS011;35085;40.398;-3.702;2023-03-01T09:06:33;21.52;;;8.68;;
43554;SDS011;35085;40.398;-3.702;2023-03-01T09:16:51;9.15;;;3.42;;
43554;SDS011;35085;40.398;-3.702;2023-03-01T09:27:00;6.65;;;2.20;;
43554;SDS011;35085;40.398;-3.702;2023-03-01T09:37:09;4.90;;;2.38;;
43554;SDS011;35085;40.398;-3.702;2023-03-01T09:47:18;3.60;;;2.10;;
43554;SDS011;35085;40.398;-3.702;2023-03-01T10:17:52;5.28;;;2.40;;
43554;SDS011;35085;40.398;-3.702;2023-03-01T10:28:13;5.28;;;2.72;;
43554;SDS011;35085;40.398;-3.702;2023-03-01T10:38:18;5.93;;;2.63;;
43554;SDS011;35085;40.398;-3.702;2023-03-01T10:48:26;5.68;;;2.45;;
43554;SDS011;35085;40.398;-3.702;2023-03-01T10:58:37;5.85;;;3.03;;
43554;SDS011;35085;40.398;-3.702;2023-03-01T11:08:47;5.75;;;2.70;;
43554;SDS011;35085;40.398;-3.702;2023-03-01T11:18:56;5.60;;;2.33;;
43554;SDS011;35085;40.398;-3.702;2023-03-01T11:29:16;4.13;;;2.40;;
43554;SDS011;35085;40.398;-3.702;2023-03-01T12:10:23;6.10;;;3.13;;
43554;SDS011;35085;40.398;-3.702;2023-03-01T12:51:09;5.90;;;2.47;;
43554;SDS011;35085;40.398;-3.702;2023-03-01T13:01:19;3.55;;;2.25;;
43554;SDS011;35085;40.398;-3.702;2023-03-01T13:11:29;3.58;;;2.50;;
43554;SDS011;35085;40.398;-3.702;2023-03-01T13:21:38;4.85;;;2.40;;
43554;SDS011;35085;40.398;-3.702;2023-03-01T13:41:52;4.20;;;2.53;;
43554;SDS011;35085;40.398;-3.702;2023-03-01T13:51:57;3.90;;;2.47;;
43554;SDS011;35085;40.398;-3.702;2023-03-01T14:02:10;5.65;;;3.17;;
43554;SDS011;35085;40.398;-3.702;2023-03-01T14:22:41;9.43;;;4.20;;
43554;SDS011;35085;40.398;-3.702;2023-03-01T14:32:55;44.13;;;7.18;;
43554;SDS011;35085;40.398;-3.702;2023-03-01T14:43:11;3.90;;;2.60;;
43554;SDS011;35085;40.398;-3.702;2023-03-01T14:53:24;4.68;;;2.80;;
43554;SDS011;35085;40.398;-3.702;2023-03-01T15:13:36;6.03;;;2.42;;
43554;SDS011;35085;40.398;-3.702;2023-03-01T15:23:52;7.30;;;3.07;;
43554;SDS011;35085;40.398;-3.702;2023-03-01T15:34:09;6.03;;;2.47;;
43554;SDS011;35085;40.398;-3.702;2023-03-01T15:44:23;4.97;;;2.53;;
43554;SDS011;35085;40.398;-3.702;2023-03-01T15:54:33;3.92;;;2.17;;
43554;SDS011;35085;40.398;-3.702;2023-03-01T16:04:42;5.13;;;2.25;;
43554;SDS011;35085;40.398;-3.702;2023-03-01T16:14:52;4.57;;;2.35;;
43554;SDS011;35085;40.398;-3.702;2023-03-01T16:25:01;4.97;;;2.80;;
43554;SDS011;35085;40.398;-3.702;2023-03-01T16:35:04;4.75;;;2.20;;
43554;SDS011;35085;40.398;-3.702;2023-03-01T16:45:12;3.72;;;2.20;;
43554;SDS011;35085;40.398;-3.702;2023-03-01T16:55:21;8.40;;;4.05;;
43554;SDS011;35085;40.398;-3.702;2023-03-01T17:05:29;3.10;;;1.90;;
43554;SDS011;35085;40.398;-3.702;2023-03-01T17:15:33;2.22;;;1.20;;
43554;SDS011;35085;40.398;-3.702;2023-03-01T17:25:43;3.83;;;1.23;;
43554;SDS011;35085;40.398;-3.702;2023-03-01T17:35:52;3.50;;;0.77;;
43554;SDS011;35085;40.398;-3.702;2023-03-01T17:46:00;4.18;;;0.80;;
43554;SDS011;35085;40.398;-3.702;2023-03-01T17:56:04;2.30;;;1.00;;
43554;SDS011;35085;40.398;-3.702;2023-03-01T18:06:16;5.25;;;1.00;;
43554;SDS011;35085;40.398;-3.702;2023-03-01T18:16:25;3.58;;;1.00;;
43554;SDS011;35085;40.398;-3.702;2023-03-01T18:26:32;4.20;;;1.30;;
43554;SDS011;35085;40.398;-3.702;2023-03-01T18:36:42;3.95;;;1.80;;
43554;SDS011;35085;40.398;-3.702;2023-03-01T18:46:51;5.70;;;1.20;;
43554;SDS011;35085;40.398;-3.702;2023-03-01T18:57:00;3.58;;;1.48;;
43554;SDS011;35085;40.398;-3.702;2023-03-01T19:07:09;3.50;;;1.80;;
43554;SDS011;35085;40.398;-3.702;2023-03-01T19:17:23;6.35;;;2.03;;
43554;SDS011;35085;40.398;-3.702;2023-03-01T19:27:30;3.20;;;1.98;;
43554;SDS011;35085;40.398;-3.702;2023-03-01T19:37:52;5.10;;;2.05;;
43554;SDS011;35085;40.398;-3.702;2023-03-01T19:48:22;3.93;;;2.13;;
43554;SDS011;35085;40.398;-3.702;2023-03-01T19:58:31;8.10;;;2.10;;
43554;SDS011;35085;40.398;-3.702;2023-03-01T20:08:45;4.85;;;2.40;;
43554;SDS011;35085;40.398;-3.702;2023-03-01T20:18:47;7.55;;;3.40;;
43554;SDS011;35085;40.398;-3.702;2023-03-01T20:28:57;7.28;;;3.45;;
43554;SDS011;35085;40.398;-3.702;2023-03-01T20:39:01;11.38;;;4.30;;
43554;SDS011;35085;40.398;-3.702;2023-03-01T20:49:08;8.88;;;4.20;;
43554;SDS011;35085;40.398;-3.702;2023-03-01T20:59:18;12.48;;;5.30;;
43554;SDS011;35085;40.398;-3.702;2023-03-01T21:09:27;11.67;;;4.30;;
43554;SDS011;35085;40.398;-3.702;2023-03-01T21:19:30;9.13;;;4.70;;
43554;SDS011;35085;40.398;-3.702;2023-03-01T21:29:41;13.02;;;5.88;;
43554;SDS011;35085;40.398;-3.702;2023-03-01T21:39:45;11.60;;;5.38;;
43554;SDS011;35085;40.398;-3.702;2023-03-01T22:00:03;12.75;;;6.03;;
43554;SDS011;35085;40.398;-3.702;2023-03-01T22:10:15;10.23;;;5.15;;
43554;SDS011;35085;40.398;-3.702;2023-03-01T22:20:28;8.23;;;4.53;;
43554;SDS011;35085;40.398;-3.702;2023-03-01T22:30:37;13.60;;;5.00;;
43554;SDS011;35085;40.398;-3.702;2023-03-01T22:40:40;9.18;;;4.55;;
43554;SDS011;35085;40.398;-3.702;2023-03-01T22:50:46;8.60;;;4.28;;
43554;SDS011;35085;40.398;-3.702;2023-03-01T23:00:54;11.68;;;5.25;;
43554;SDS011;35085;40.398;-3.702;2023-03-01T23:11:07;9.45;;;5.07;;
43554;SDS011;35085;40.398;-3.702;2023-03-01T23:21:17;10.27;;;5.10;;
43554;SDS011;35085;40.398;-3.702;2023-03-01T23:31:23;11.07;;;5.07;;
43554;SDS011;35085;40.398;-3.702;2023-03-01T23:41:31;8.38;;;4.70;;
43554;SDS011;35085;40.398;-3.702;2023-03-01T23:51:40;7.80;;;4.33;;
